^^
Grace C. Lehan Memorial Weather Station Historical Data
 
Daily Summary for December 10, 2018 Units:  English    Metric   Both
Daily Weekly Monthly Yearly Custom
  Current: High: Low: Average:
Temperature: 32.9 °F 32.9 °F 23.8 °F 26.2 °F
Dew Point: 23.51 °F 23.57 °F 19.03 °F 20.4 °F
Humidity: 68% 85% 68% 78%
Wind Speed: 0mph 4mph 0mph 0.3mph
Wind Gust: 12mph 12mph - -
WindCalm - - South
Pressure: 30.13 in 30.13 in 30.07 in -
Precipitation: 0 in      
Historical Graphs
 
 
Tabular Data for December 10, 2018
Time Temperature Dew Point Pressure Wind Wind Speed Wind Gust Humidity Rainfall Rate (Hourly) solar
00:04 27.9 °F 20.06 °F 30.12 in Calm     72% 0 in 0.00 W/m2
00:09 27.8 °F 19.96 °F 30.12 in Calm     72% 0 in 0.00 W/m2
00:14 27.6 °F 19.77 °F 30.12 in Calm     72% 0 in 0.00 W/m2
00:19 27.6 °F 19.77 °F 30.11 in Calm     72% 0 in 0.00 W/m2
00:24 27.5 °F 19.67 °F 30.11 in Calm     72% 0 in 0.00 W/m2
00:29 27.4 °F 19.58 °F 30.11 in Calm     72% 0 in 0.00 W/m2
00:34 27.4 °F 19.58 °F 30.11 in Calm     72% 0 in 0.00 W/m2
00:39 27.3 °F 19.48 °F 30.11 in Calm     72% 0 in 0.00 W/m2
00:44 27.2 °F 19.38 °F 30.10 in Calm     72% 0 in 0.00 W/m2
00:49 27.1 °F 19.61 °F 30.10 in Calm     73% 0 in 0.00 W/m2
00:54 27 °F 19.51 °F 30.10 in Calm     73% 0 in 0.00 W/m2
00:59 27 °F 19.51 °F 30.10 in Calm     73% 0 in 0.00 W/m2
01:04 26.8 °F 19.32 °F 30.10 in Calm     73% 0 in 0.00 W/m2
01:09 26.6 °F 19.44 °F 30.10 in Calm     74% 0 in 0.00 W/m2
01:14 26.5 °F 19.35 °F 30.10 in Calm     74% 0 in 0.00 W/m2
01:19 26.4 °F 19.56 °F 30.09 in Calm     75% 0 in 0.00 W/m2
01:24 26.3 °F 19.47 °F 30.09 in Calm     75% 0 in 0.00 W/m2
01:29 26.2 °F 19.37 °F 30.09 in Calm     75% 0 in 0.00 W/m2
01:34 26 °F 19.49 °F 30.09 in Calm     76% 0 in 0.00 W/m2
01:39 25.9 °F 19.39 °F 30.09 in Calm     76% 0 in 0.00 W/m2
01:44 25.7 °F 19.2 °F 30.09 in Calm     76% 0 in 0.00 W/m2
01:49 25.5 °F 19.31 °F 30.09 in Calm     77% 0 in 0.00 W/m2
01:54 25.4 °F 19.21 °F 30.09 in Calm   2 mph 77% 0 in 0.00 W/m2
01:59 25.3 °F 19.41 °F 30.10 in Calm   2 mph 78% 0 in 0.00 W/m2
02:04 25.2 °F 19.32 °F 30.09 in Calm     78% 0 in 0.00 W/m2
02:09 25.1 °F 19.22 °F 30.09 in Calm     78% 0 in 0.00 W/m2
02:14 24.9 °F 19.32 °F 30.09 in Calm     79% 0 in 0.00 W/m2
02:19 24.6 °F 19.03 °F 30.09 in SW 1 mph 2 mph 79% 0 in 0.00 W/m2
02:24 24.3 °F 19.03 °F 30.09 in SW 1 mph 3 mph 80% 0 in 0.00 W/m2
02:29 24 °F 19.03 °F 30.09 in Calm   3 mph 81% 0 in 0.00 W/m2
02:34 23.8 °F 19.12 °F 30.09 in Calm   1 mph 82% 0 in 0.00 W/m2
02:39 23.8 °F 19.12 °F 30.09 in SW 1 mph 2 mph 82% 0 in 0.00 W/m2
02:44 23.8 °F 19.12 °F 30.09 in Calm   2 mph 82% 0 in 0.00 W/m2
02:49 23.9 °F 19.22 °F 30.09 in Calm   2 mph 82% 0 in 0.00 W/m2
02:54 24 °F 19.31 °F 30.09 in Calm   2 mph 82% 0 in 0.00 W/m2
02:59 24 °F 19.6 °F 30.08 in Calm   2 mph 83% 0 in 0.00 W/m2
03:04 24.1 °F 19.69 °F 30.08 in Calm     83% 0 in 0.00 W/m2
03:09 24.1 °F 19.69 °F 30.08 in Calm   1 mph 83% 0 in 0.00 W/m2
03:14 24.4 °F 19.71 °F 30.08 in Calm   1 mph 82% 0 in 0.00 W/m2
03:19 24.6 °F 19.9 °F 30.08 in Calm   1 mph 82% 0 in 0.00 W/m2
03:24 24.9 °F 19.91 °F 30.08 in Calm   1 mph 81% 0 in 0.00 W/m2
03:29 25.1 °F 19.81 °F 30.08 in Calm   1 mph 80% 0 in 0.00 W/m2
03:34 25.1 °F 19.81 °F 30.08 in Calm     80% 0 in 0.00 W/m2
03:39 25.1 °F 19.81 °F 30.07 in Calm     80% 0 in 0.00 W/m2
03:44 25.2 °F 19.91 °F 30.07 in Calm     80% 0 in 0.00 W/m2
03:49 25.3 °F 19.71 °F 30.07 in Calm     79% 0 in 0.00 W/m2
03:54 25.4 °F 19.81 °F 30.07 in Calm     79% 0 in 0.00 W/m2
03:59 25.7 °F 20.1 °F 30.07 in Calm     79% 0 in 0.00 W/m2
04:04 26 °F 20.09 °F 30.07 in Calm   1 mph 78% 0 in 0.00 W/m2
04:09 26.2 °F 20.29 °F 30.07 in Calm   2 mph 78% 0 in 0.00 W/m2
04:14 26.5 °F 20.28 °F 30.07 in Calm   3 mph 77% 0 in 0.00 W/m2
04:19 26.6 °F 20.38 °F 30.07 in Calm   3 mph 77% 0 in 0.00 W/m2
04:24 26.6 °F 20.38 °F 30.07 in Calm   3 mph 77% 0 in 0.00 W/m2
04:29 26.6 °F 20.38 °F 30.07 in Calm   3 mph 77% 0 in 0.00 W/m2
04:34 26.3 °F 20.08 °F 30.07 in Calm     77% 0 in 0.00 W/m2
04:39 26.2 °F 19.99 °F 30.07 in Calm   4 mph 77% 0 in 0.00 W/m2
04:44 26.1 °F 20.19 °F 30.07 in Calm   4 mph 78% 0 in 0.00 W/m2
04:49 26.2 °F 20.29 °F 30.07 in Calm   4 mph 78% 0 in 0.00 W/m2
04:54 26.1 °F 20.19 °F 30.07 in Calm   4 mph 78% 0 in 0.00 W/m2
04:59 26 °F 20.09 °F 30.07 in Calm   4 mph 78% 0 in 0.00 W/m2
05:04 25.9 °F 20 °F 30.07 in Calm     78% 0 in 0.00 W/m2
05:09 25.8 °F 19.9 °F 30.07 in Calm     78% 0 in 0.00 W/m2
05:14 25.8 °F 19.9 °F 30.07 in Calm     78% 0 in 0.00 W/m2
05:19 25.8 °F 20.2 °F 30.07 in Calm     79% 0 in 0.00 W/m2
05:24 25.7 °F 20.1 °F 30.07 in Calm     79% 0 in 0.00 W/m2
05:29 25.7 °F 20.1 °F 30.07 in Calm   1 mph 79% 0 in 0.00 W/m2
05:34 25.6 °F 20 °F 30.07 in Calm   1 mph 79% 0 in 0.00 W/m2
05:39 25.6 °F 20 °F 30.07 in Calm   3 mph 79% 0 in 0.00 W/m2
05:44 25.7 °F 20.4 °F 30.07 in Calm   4 mph 80% 0 in 0.00 W/m2
05:49 25.9 °F 20.59 °F 30.07 in Calm   4 mph 80% 0 in 0.00 W/m2
05:54 26.1 °F 20.79 °F 30.07 in Calm   4 mph 80% 0 in 0.00 W/m2
05:59 26.2 °F 20.88 °F 30.07 in Calm   4 mph 80% 0 in 0.00 W/m2
06:04 26.4 °F 21.08 °F 30.08 in West 3 mph 3 mph 80% 0 in 0.00 W/m2
06:09 26.7 °F 21.08 °F 30.08 in WNW 2 mph 3 mph 79% 0 in 0.00 W/m2
06:14 26.9 °F 21.27 °F 30.08 in Calm   3 mph 79% 0 in 0.00 W/m2
06:19 27.1 °F 21.46 °F 30.08 in Calm   3 mph 79% 0 in 0.00 W/m2
06:24 27.2 °F 21.26 °F 30.08 in Calm   3 mph 78% 0 in 0.00 W/m2
06:29 27.4 °F 21.46 °F 30.08 in Calm   3 mph 78% 0 in 0.00 W/m2
06:34 27.5 °F 21.55 °F 30.08 in Calm     78% 0 in 0.00 W/m2
06:39 27.6 °F 21.65 °F 30.08 in Calm   2 mph 78% 0 in 0.00 W/m2
06:44 27.2 °F 20.96 °F 30.08 in Calm   2 mph 77% 0 in 0.00 W/m2
06:49 26.2 °F 19.99 °F 30.08 in Calm   2 mph 77% 0 in 0.00 W/m2
06:54 25.6 °F 20 °F 30.08 in Calm   2 mph 79% 0 in 0.00 W/m2
06:59 25.2 °F 19.91 °F 30.08 in Calm   2 mph 80% 0 in 0.00 W/m2
07:04 24.8 °F 19.81 °F 30.08 in Calm     81% 0 in 0.00 W/m2
07:09 24.5 °F 19.52 °F 30.08 in Calm     81% 0 in 0.00 W/m2
07:14 24.4 °F 19.71 °F 30.08 in Calm     82% 0 in 0.00 W/m2
07:19 24.2 °F 19.51 °F 30.09 in Calm     82% 0 in 5.00 W/m2
07:24 24.1 °F 19.41 °F 30.09 in Calm     82% 0 in 7.00 W/m2
07:29 24.1 °F 19.69 °F 30.08 in Calm     83% 0 in 9.00 W/m2
07:34 24 °F 19.6 °F 30.09 in Calm     83% 0 in 9.00 W/m2
07:39 24 °F 19.6 °F 30.09 in Calm     83% 0 in 11.00 W/m2
07:44 24 °F 19.6 °F 30.09 in Calm     83% 0 in 12.00 W/m2
07:49 24 °F 19.6 °F 30.09 in Calm     83% 0 in 14.00 W/m2
07:54 24 °F 19.88 °F 30.09 in Calm     84% 0 in 14.00 W/m2
07:59 24.1 °F 19.98 °F 30.10 in Calm     84% 0 in 26.00 W/m2
08:04 24.1 °F 19.98 °F 30.10 in Calm     84% 0 in 42.00 W/m2
08:09 24.3 °F 20.17 °F 30.10 in Calm     84% 0 in 56.00 W/m2
08:14 24.5 °F 20.37 °F 30.11 in Calm     84% 0 in 39.00 W/m2
08:19 24.8 °F 20.94 °F 30.11 in Calm     85% 0 in 19.00 W/m2
08:24 25.1 °F 20.96 °F 30.11 in Calm     84% 0 in 21.00 W/m2
08:29 25.4 °F 21.25 °F 30.11 in Calm     84% 0 in 25.00 W/m2
08:34 25.7 °F 21.54 °F 30.10 in Calm     84% 0 in 21.00 W/m2
08:39 26 °F 21.56 °F 30.10 in Calm     83% 0 in 25.00 W/m2
08:44 26.3 °F 21.56 °F 30.11 in Calm     82% 0 in 23.00 W/m2
08:49 26.5 °F 21.47 °F 30.11 in Calm     81% 0 in 23.00 W/m2
08:54 26.7 °F 21.66 °F 30.11 in Calm     81% 0 in 26.00 W/m2
08:59 27 °F 21.96 °F 30.12 in Calm   2 mph 81% 0 in 23.00 W/m2
09:04 27.2 °F 21.86 °F 30.12 in WNW 4 mph 4 mph 80% 0 in 23.00 W/m2
09:09 27.5 °F 22.15 °F 30.12 in Calm   4 mph 80% 0 in 23.00 W/m2
09:14 27.8 °F 22.15 °F 30.12 in NW 2 mph 4 mph 79% 0 in 25.00 W/m2
09:19 28.1 °F 22.14 °F 30.12 in NNW 3 mph 4 mph 78% 0 in 26.00 W/m2
09:24 28.4 °F 22.43 °F 30.12 in NNW 3 mph 4 mph 78% 0 in 25.00 W/m2
09:29 28.7 °F 22.41 °F 30.12 in Calm   5 mph 77% 0 in 28.00 W/m2
09:34 29.1 °F 22.8 °F 30.12 in NE 2 mph 4 mph 77% 0 in 28.00 W/m2
09:39 29.6 °F 22.66 °F 30.12 in ENE 2 mph 4 mph 75% 0 in 40.00 W/m2
09:44 30.1 °F 22.83 °F 30.12 in ENE 1 mph 5 mph 74% 0 in 26.00 W/m2
09:49 30.5 °F 22.89 °F 30.12 in ENE 1 mph 5 mph 73% 0 in 26.00 W/m2
09:54 30.9 °F 22.95 °F 30.13 in ENE 3 mph 5 mph 72% 0 in 28.00 W/m2
09:59 31.2 °F 23.24 °F 30.12 in ENE 1 mph 5 mph 72% 0 in 30.00 W/m2
10:04 31.6 °F 23.29 °F 30.13 in ENE 3 mph 5 mph 71% 0 in 30.00 W/m2
10:09 32.1 °F 23.43 °F 30.13 in North 2 mph 5 mph 70% 0 in 42.00 W/m2
10:14 32.6 °F 23.57 °F 30.12 in NNE 3 mph 12 mph 69% 0 in 39.00 W/m2
10:19 32.9 °F 23.51 °F 30.13 in Calm   12 mph 68% 0 in 116.00 W/m2
Grace C. Lehan Memorial Weather Station
Compliments of Weather Underground - 2 mb